sensor_id;sensor_type;location;lat;lon;timestamp;P1;durP1;ratioP1;P2;durP2;ratioP2
66087;SDS011;52872;52.994;6.940;2023-01-01T00:02:22;106.53;;;95.07;;
66087;SDS011;52872;52.994;6.940;2023-01-01T00:04:49;95.93;;;87.43;;
66087;SDS011;52872;52.994;6.940;2023-01-01T00:07:16;39.28;;;35.50;;
66087;SDS011;52872;52.994;6.940;2023-01-01T00:09:43;39.30;;;30.10;;
66087;SDS011;52872;52.994;6.940;2023-01-01T00:12:30;27.58;;;17.23;;
66087;SDS011;52872;52.994;6.940;2023-01-01T00:14:58;29.70;;;26.20;;
66087;SDS011;52872;52.994;6.940;2023-01-01T00:17:25;45.88;;;41.20;;
66087;SDS011;52872;52.994;6.940;2023-01-01T00:19:54;74.25;;;66.97;;
66087;SDS011;52872;52.994;6.940;2023-01-01T00:22:21;52.30;;;46.80;;
66087;SDS011;52872;52.994;6.940;2023-01-01T00:25:09;42.65;;;36.72;;
66087;SDS011;52872;52.994;6.940;2023-01-01T00:27:40;29.33;;;25.33;;
66087;SDS011;52872;52.994;6.940;2023-01-01T00:30:08;29.33;;;21.77;;
66087;SDS011;52872;52.994;6.940;2023-01-01T00:32:36;24.83;;;18.13;;
66087;SDS011;52872;52.994;6.940;2023-01-01T00:35:03;25.75;;;19.25;;
66087;SDS011;52872;52.994;6.940;2023-01-01T00:37:31;23.73;;;16.35;;
66087;SDS011;52872;52.994;6.940;2023-01-01T00:39:58;21.70;;;15.85;;
66087;SDS011;52872;52.994;6.940;2023-01-01T00:42:25;22.83;;;14.10;;
66087;SDS011;52872;52.994;6.940;2023-01-01T00:44:52;25.60;;;16.40;;
66087;SDS011;52872;52.994;6.940;2023-01-01T00:47:19;22.80;;;14.75;;
66087;SDS011;52872;52.994;6.940;2023-01-01T00:49:46;18.90;;;14.85;;
66087;SDS011;52872;52.994;6.940;2023-01-01T00:52:13;17.38;;;13.43;;
66087;SDS011;52872;52.994;6.940;2023-01-01T00:54:40;24.67;;;15.80;;
66087;SDS011;52872;52.994;6.940;2023-01-01T00:57:07;23.60;;;13.50;;
66087;SDS011;52872;52.994;6.940;2023-01-01T00:59:34;27.35;;;24.42;;
66087;SDS011;52872;52.994;6.940;2023-01-01T01:02:01;22.88;;;18.13;;
66087;SDS011;52872;52.994;6.940;2023-01-01T01:04:28;118.10;;;100.22;;
66087;SDS011;52872;52.994;6.940;2023-01-01T01:06:55;206.65;;;141.32;;
66087;SDS011;52872;52.994;6.940;2023-01-01T01:09:23;122.25;;;90.60;;
66087;SDS011;52872;52.994;6.940;2023-01-01T01:11:50;29.17;;;23.00;;
66087;SDS011;52872;52.994;6.940;2023-01-01T01:14:17;25.60;;;16.02;;
66087;SDS011;52872;52.994;6.940;2023-01-01T01:19:35;22.30;;;17.90;;
66087;SDS011;52872;52.994;6.940;2023-01-01T01:22:03;21.27;;;14.40;;
66087;SDS011;52872;52.994;6.940;2023-01-01T01:24:32;18.50;;;13.15;;
66087;SDS011;52872;52.994;6.940;2023-01-01T01:26:59;20.20;;;14.13;;
66087;SDS011;52872;52.994;6.940;2023-01-01T01:29:26;23.65;;;15.93;;
66087;SDS011;52872;52.994;6.940;2023-01-01T01:31:53;26.70;;;19.23;;
66087;SDS011;52872;52.994;6.940;2023-01-01T01:34:20;21.50;;;15.48;;
66087;SDS011;52872;52.994;6.940;2023-01-01T01:36:53;23.35;;;16.60;;
66087;SDS011;52872;52.994;6.940;2023-01-01T01:39:20;23.83;;;14.77;;
66087;SDS011;52872;52.994;6.940;2023-01-01T01:41:47;20.23;;;13.38;;
66087;SDS011;52872;52.994;6.940;2023-01-01T01:52:36;22.92;;;15.10;;
66087;SDS011;52872;52.994;6.940;2023-01-01T01:55:07;23.50;;;15.38;;
66087;SDS011;52872;52.994;6.940;2023-01-01T01:57:36;22.88;;;13.27;;
66087;SDS011;52872;52.994;6.940;2023-01-01T02:00:05;22.95;;;14.10;;
66087;SDS011;52872;52.994;6.940;2023-01-01T02:02:46;20.00;;;14.38;;
66087;SDS011;52872;52.994;6.940;2023-01-01T02:05:20;23.25;;;14.02;;
66087;SDS011;52872;52.994;6.940;2023-01-01T02:07:49;21.27;;;15.27;;
66087;SDS011;52872;52.994;6.940;2023-01-01T02:10:21;23.00;;;13.82;;
66087;SDS011;52872;52.994;6.940;2023-01-01T02:12:48;22.23;;;14.80;;
66087;SDS011;52872;52.994;6.940;2023-01-01T02:15:15;21.85;;;14.93;;
66087;SDS011;52872;52.994;6.940;2023-01-01T02:20:17;24.35;;;15.02;;
66087;SDS011;52872;52.994;6.940;2023-01-01T02:23:21;19.92;;;14.30;;
66087;SDS011;52872;52.994;6.940;2023-01-01T02:28:56;20.20;;;15.63;;
66087;SDS011;52872;52.994;6.940;2023-01-01T02:31:38;23.15;;;15.35;;
66087;SDS011;52872;52.994;6.940;2023-01-01T02:34:11;21.90;;;15.60;;
66087;SDS011;52872;52.994;6.940;2023-01-01T02:36:45;25.70;;;15.95;;
66087;SDS011;52872;52.994;6.940;2023-01-01T02:39:18;22.23;;;15.88;;
66087;SDS011;52872;52.994;6.940;2023-01-01T02:41:49;20.13;;;14.82;;
66087;SDS011;52872;52.994;6.940;2023-01-01T02:44:20;20.77;;;15.95;;
66087;SDS011;52872;52.994;6.940;2023-01-01T02:46:50;23.85;;;16.33;;
66087;SDS011;52872;52.994;6.940;2023-01-01T02:49:17;24.17;;;15.45;;
66087;SDS011;52872;52.994;6.940;2023-01-01T03:03:04;19.45;;;12.82;;
66087;SDS011;52872;52.994;6.940;2023-01-01T03:06:09;18.27;;;12.57;;
66087;SDS011;52872;52.994;6.940;2023-01-01T03:14:24;21.50;;;12.13;;
66087;SDS011;52872;52.994;6.940;2023-01-01T03:17:16;18.88;;;11.93;;
66087;SDS011;52872;52.994;6.940;2023-01-01T03:19:55;16.35;;;11.27;;
66087;SDS011;52872;52.994;6.940;2023-01-01T03:22:27;16.75;;;11.18;;
66087;SDS011;52872;52.994;6.940;2023-01-01T03:25:05;15.88;;;10.15;;
66087;SDS011;52872;52.994;6.940;2023-01-01T03:27:45;18.45;;;9.95;;
66087;SDS011;52872;52.994;6.940;2023-01-01T03:30:26;18.38;;;10.02;;
66087;SDS011;52872;52.994;6.940;2023-01-01T03:32:59;16.60;;;9.07;;
66087;SDS011;52872;52.994;6.940;2023-01-01T03:35:34;16.73;;;8.40;;
66087;SDS011;52872;52.994;6.940;2023-01-01T03:38:03;11.73;;;7.15;;
66087;SDS011;52872;52.994;6.940;2023-01-01T03:40:35;13.70;;;7.15;;
66087;SDS011;52872;52.994;6.940;2023-01-01T03:43:06;14.15;;;6.85;;
66087;SDS011;52872;52.994;6.940;2023-01-01T03:45:42;13.85;;;5.90;;
66087;SDS011;52872;52.994;6.940;2023-01-01T03:48:13;12.40;;;6.20;;
66087;SDS011;52872;52.994;6.940;2023-01-01T03:50:54;11.55;;;5.50;;
66087;SDS011;52872;52.994;6.940;2023-01-01T03:53:32;12.93;;;5.10;;
66087;SDS011;52872;52.994;6.940;2023-01-01T03:59:16;10.13;;;4.20;;
66087;SDS011;52872;52.994;6.940;2023-01-01T04:01:56;10.10;;;4.60;;
66087;SDS011;52872;52.994;6.940;2023-01-01T04:04:24;8.77;;;3.63;;
66087;SDS011;52872;52.994;6.940;2023-01-01T04:06:52;6.72;;;3.28;;
66087;SDS011;52872;52.994;6.940;2023-01-01T04:09:22;9.40;;;4.15;;
66087;SDS011;52872;52.994;6.940;2023-01-01T04:11:53;6.65;;;3.08;;
66087;SDS011;52872;52.994;6.940;2023-01-01T04:14:39;7.60;;;3.65;;
66087;SDS011;52872;52.994;6.940;2023-01-01T04:17:07;10.75;;;4.03;;
66087;SDS011;52872;52.994;6.940;2023-01-01T04:19:36;7.95;;;3.28;;
66087;SDS011;52872;52.994;6.940;2023-01-01T04:22:03;5.43;;;3.42;;
66087;SDS011;52872;52.994;6.940;2023-01-01T04:24:30;10.27;;;3.03;;
66087;SDS011;52872;52.994;6.940;2023-01-01T04:26:57;10.25;;;3.58;;
66087;SDS011;52872;52.994;6.940;2023-01-01T04:29:24;8.20;;;3.45;;
66087;SDS011;52872;52.994;6.940;2023-01-01T04:31:51;9.00;;;3.10;;
66087;SDS011;52872;52.994;6.940;2023-01-01T04:34:19;6.38;;;2.95;;
66087;SDS011;52872;52.994;6.940;2023-01-01T04:36:46;8.52;;;3.40;;
66087;SDS011;52872;52.994;6.940;2023-01-01T04:39:13;6.68;;;2.70;;
66087;SDS011;52872;52.994;6.940;2023-01-01T04:41:40;8.35;;;2.80;;
66087;SDS011;52872;52.994;6.940;2023-01-01T04:44:07;6.60;;;2.72;;
66087;SDS011;52872;52.994;6.940;2023-01-01T04:46:34;5.00;;;2.80;;
66087;SDS011;52872;52.994;6.940;2023-01-01T04:49:04;6.30;;;2.67;;
66087;SDS011;52872;52.994;6.940;2023-01-01T04:51:31;7.10;;;2.60;;
66087;SDS011;52872;52.994;6.940;2023-01-01T04:53:58;7.63;;;2.83;;
66087;SDS011;52872;52.994;6.940;2023-01-01T04:56:27;4.70;;;2.85;;
66087;SDS011;52872;52.994;6.940;2023-01-01T04:58:54;7.30;;;2.42;;
66087;SDS011;52872;52.994;6.940;2023-01-01T05:01:25;6.72;;;3.10;;
66087;SDS011;52872;52.994;6.940;2023-01-01T05:03:53;6.80;;;2.70;;
66087;SDS011;52872;52.994;6.940;2023-01-01T05:06:21;6.03;;;2.50;;
66087;SDS011;52872;52.994;6.940;2023-01-01T05:08:49;7.03;;;2.63;;
66087;SDS011;52872;52.994;6.940;2023-01-01T05:11:23;8.30;;;3.20;;
66087;SDS011;52872;52.994;6.940;2023-01-01T05:13:53;10.05;;;2.70;;
66087;SDS011;52872;52.994;6.940;2023-01-01T05:16:22;7.25;;;2.60;;
66087;SDS011;52872;52.994;6.940;2023-01-01T05:18:51;5.40;;;2.53;;
66087;SDS011;52872;52.994;6.940;2023-01-01T05:21:20;7.25;;;3.05;;
66087;SDS011;52872;52.994;6.940;2023-01-01T05:23:52;4.28;;;2.63;;
66087;SDS011;52872;52.994;6.940;2023-01-01T05:26:21;8.48;;;2.50;;
66087;SDS011;52872;52.994;6.940;2023-01-01T05:28:50;7.13;;;2.28;;
66087;SDS011;52872;52.994;6.940;2023-01-01T05:31:19;6.50;;;2.17;;
66087;SDS011;52872;52.994;6.940;2023-01-01T05:33:48;6.35;;;2.15;;
66087;SDS011;52872;52.994;6.940;2023-01-01T05:36:17;9.52;;;2.33;;
66087;SDS011;52872;52.994;6.940;2023-01-01T05:38:47;5.00;;;2.00;;
66087;SDS011;52872;52.994;6.940;2023-01-01T05:41:15;5.25;;;2.03;;
66087;SDS011;52872;52.994;6.940;2023-01-01T05:43:43;7.22;;;2.45;;
66087;SDS011;52872;52.994;6.940;2023-01-01T05:46:12;5.10;;;1.90;;
66087;SDS011;52872;52.994;6.940;2023-01-01T05:48:42;5.03;;;2.00;;
66087;SDS011;52872;52.994;6.940;2023-01-01T05:51:13;5.85;;;2.08;;
66087;SDS011;52872;52.994;6.940;2023-01-01T05:53:41;7.03;;;2.25;;
66087;SDS011;52872;52.994;6.940;2023-01-01T05:56:10;6.15;;;1.70;;
66087;SDS011;52872;52.994;6.940;2023-01-01T05:58:37;3.30;;;1.55;;
66087;SDS011;52872;52.994;6.940;2023-01-01T06:03:36;4.13;;;2.00;;
66087;SDS011;52872;52.994;6.940;2023-01-01T06:06:10;3.47;;;1.73;;
66087;SDS011;52872;52.994;6.940;2023-01-01T06:08:39;2.05;;;1.85;;
66087;SDS011;52872;52.994;6.940;2023-01-01T06:11:07;6.88;;;2.50;;
66087;SDS011;52872;52.994;6.940;2023-01-01T06:13:37;4.20;;;1.80;;
66087;SDS011;52872;52.994;6.940;2023-01-01T06:16:04;3.75;;;1.80;;
66087;SDS011;52872;52.994;6.940;2023-01-01T06:18:32;4.47;;;1.80;;
66087;SDS011;52872;52.994;6.940;2023-01-01T06:21:04;4.15;;;1.50;;
66087;SDS011;52872;52.994;6.940;2023-01-01T06:23:32;5.15;;;2.13;;
66087;SDS011;52872;52.994;6.940;2023-01-01T06:26:03;2.83;;;1.58;;
66087;SDS011;52872;52.994;6.940;2023-01-01T06:28:31;2.95;;;1.23;;
66087;SDS011;52872;52.994;6.940;2023-01-01T06:30:59;4.40;;;1.90;;
66087;SDS011;52872;52.994;6.940;2023-01-01T06:33:27;3.20;;;1.58;;
66087;SDS011;52872;52.994;6.940;2023-01-01T06:35:55;4.38;;;1.40;;
66087;SDS011;52872;52.994;6.940;2023-01-01T06:38:22;3.90;;;1.80;;
66087;SDS011;52872;52.994;6.940;2023-01-01T06:40:56;3.17;;;1.42;;
66087;SDS011;52872;52.994;6.940;2023-01-01T06:43:24;3.58;;;1.23;;
66087;SDS011;52872;52.994;6.940;2023-01-01T06:46:02;3.63;;;1.30;;
66087;SDS011;52872;52.994;6.940;2023-01-01T06:48:32;4.15;;;1.50;;
66087;SDS011;52872;52.994;6.940;2023-01-01T06:51:04;5.80;;;1.58;;
66087;SDS011;52872;52.994;6.940;2023-01-01T06:53:36;3.15;;;1.50;;
66087;SDS011;52872;52.994;6.940;2023-01-01T06:56:03;4.22;;;1.73;;
66087;SDS011;52872;52.994;6.940;2023-01-01T06:58:31;4.75;;;1.60;;
66087;SDS011;52872;52.994;6.940;2023-01-01T07:01:05;6.93;;;1.58;;
66087;SDS011;52872;52.994;6.940;2023-01-01T07:03:35;4.68;;;1.60;;
66087;SDS011;52872;52.994;6.940;2023-01-01T07:06:03;5.60;;;1.58;;
66087;SDS011;52872;52.994;6.940;2023-01-01T07:08:31;4.25;;;1.60;;
66087;SDS011;52872;52.994;6.940;2023-01-01T07:10:58;3.40;;;1.35;;
66087;SDS011;52872;52.994;6.940;2023-01-01T07:13:26;3.13;;;1.40;;
66087;SDS011;52872;52.994;6.940;2023-01-01T07:15:54;4.93;;;1.52;;
66087;SDS011;52872;52.994;6.940;2023-01-01T07:18:22;7.18;;;1.67;;
66087;SDS011;52872;52.994;6.940;2023-01-01T07:20:50;5.50;;;1.40;;
66087;SDS011;52872;52.994;6.940;2023-01-01T07:23:19;5.50;;;1.85;;
66087;SDS011;52872;52.994;6.940;2023-01-01T07:25:49;6.70;;;1.60;;
66087;SDS011;52872;52.994;6.940;2023-01-01T07:28:18;10.05;;;2.00;;
66087;SDS011;52872;52.994;6.940;2023-01-01T07:30:45;6.13;;;1.67;;
66087;SDS011;52872;52.994;6.940;2023-01-01T07:33:16;6.32;;;1.90;;
66087;SDS011;52872;52.994;6.940;2023-01-01T07:35:45;4.05;;;1.63;;
66087;SDS011;52872;52.994;6.940;2023-01-01T07:38:13;7.35;;;1.70;;
66087;SDS011;52872;52.994;6.940;2023-01-01T07:40:41;5.43;;;1.70;;
66087;SDS011;52872;52.994;6.940;2023-01-01T07:43:08;6.28;;;1.83;;
66087;SDS011;52872;52.994;6.940;2023-01-01T07:45:37;4.57;;;1.60;;
66087;SDS011;52872;52.994;6.940;2023-01-01T07:48:05;7.78;;;1.77;;
66087;SDS011;52872;52.994;6.940;2023-01-01T07:50:35;5.95;;;2.25;;
66087;SDS011;52872;52.994;6.940;2023-01-01T07:53:03;5.82;;;2.63;;
66087;SDS011;52872;52.994;6.940;2023-01-01T07:55:30;7.10;;;2.17;;
66087;SDS011;52872;52.994;6.940;2023-01-01T07:57:59;6.55;;;1.80;;
66087;SDS011;52872;52.994;6.940;2023-01-01T08:00:26;8.35;;;2.22;;
66087;SDS011;52872;52.994;6.940;2023-01-01T08:02:54;6.10;;;1.80;;
66087;SDS011;52872;52.994;6.940;2023-01-01T08:05:21;6.40;;;1.90;;
66087;SDS011;52872;52.994;6.940;2023-01-01T08:07:52;5.18;;;1.65;;
66087;SDS011;52872;52.994;6.940;2023-01-01T08:10:19;7.63;;;1.80;;
66087;SDS011;52872;52.994;6.940;2023-01-01T08:12:47;8.63;;;1.83;;
66087;SDS011;52872;52.994;6.940;2023-01-01T08:15:14;8.40;;;1.50;;
66087;SDS011;52872;52.994;6.940;2023-01-01T08:17:41;4.18;;;1.60;;
66087;SDS011;52872;52.994;6.940;2023-01-01T08:20:12;8.48;;;1.95;;
66087;SDS011;52872;52.994;6.940;2023-01-01T08:22:40;5.18;;;1.77;;
66087;SDS011;52872;52.994;6.940;2023-01-01T08:25:07;8.05;;;1.70;;
66087;SDS011;52872;52.994;6.940;2023-01-01T08:27:34;7.50;;;1.67;;
66087;SDS011;52872;52.994;6.940;2023-01-01T08:30:02;7.93;;;2.08;;
66087;SDS011;52872;52.994;6.940;2023-01-01T08:32:29;6.93;;;1.73;;
66087;SDS011;52872;52.994;6.940;2023-01-01T08:34:56;5.65;;;1.70;;
66087;SDS011;52872;52.994;6.940;2023-01-01T08:37:23;6.97;;;2.03;;
66087;SDS011;52872;52.994;6.940;2023-01-01T08:39:52;5.97;;;1.80;;
66087;SDS011;52872;52.994;6.940;2023-01-01T08:42:19;10.00;;;1.63;;
66087;SDS011;52872;52.994;6.940;2023-01-01T08:44:46;8.15;;;1.85;;
66087;SDS011;52872;52.994;6.940;2023-01-01T08:47:17;5.32;;;2.13;;
66087;SDS011;52872;52.994;6.940;2023-01-01T08:49:45;9.80;;;1.80;;
66087;SDS011;52872;52.994;6.940;2023-01-01T08:52:13;8.10;;;1.90;;
66087;SDS011;52872;52.994;6.940;2023-01-01T08:54:40;7.07;;;1.77;;
66087;SDS011;52872;52.994;6.940;2023-01-01T08:57:07;6.68;;;1.92;;
66087;SDS011;52872;52.994;6.940;2023-01-01T08:59:35;5.88;;;1.80;;
66087;SDS011;52872;52.994;6.940;2023-01-01T09:02:02;8.80;;;2.25;;
66087;SDS011;52872;52.994;6.940;2023-01-01T09:04:30;8.25;;;2.05;;
66087;SDS011;52872;52.994;6.940;2023-01-01T09:06:57;8.23;;;1.98;;
66087;SDS011;52872;52.994;6.940;2023-01-01T09:09:24;7.65;;;2.35;;
66087;SDS011;52872;52.994;6.940;2023-01-01T09:11:57;7.53;;;2.33;;
66087;SDS011;52872;52.994;6.940;2023-01-01T09:14:29;5.78;;;1.77;;
66087;SDS011;52872;52.994;6.940;2023-01-01T09:16:57;5.82;;;2.20;;
66087;SDS011;52872;52.994;6.940;2023-01-01T09:19:24;7.20;;;2.00;;
66087;SDS011;52872;52.994;6.940;2023-01-01T09:21:51;8.70;;;2.20;;
66087;SDS011;52872;52.994;6.940;2023-01-01T09:24:18;7.93;;;1.88;;
66087;SDS011;52872;52.994;6.940;2023-01-01T09:26:45;9.52;;;2.40;;
66087;SDS011;52872;52.994;6.940;2023-01-01T09:29:13;9.88;;;2.25;;
66087;SDS011;52872;52.994;6.940;2023-01-01T09:31:44;8.40;;;2.03;;
66087;SDS011;52872;52.994;6.940;2023-01-01T09:34:11;9.55;;;1.95;;
66087;SDS011;52872;52.994;6.940;2023-01-01T09:36:38;9.20;;;1.80;;
66087;SDS011;52872;52.994;6.940;2023-01-01T09:39:05;11.60;;;1.85;;
66087;SDS011;52872;52.994;6.940;2023-01-01T09:41:49;9.32;;;2.05;;
66087;SDS011;52872;52.994;6.940;2023-01-01T09:47:03;11.05;;;2.42;;
66087;SDS011;52872;52.994;6.940;2023-01-01T09:49:41;9.73;;;2.00;;
66087;SDS011;52872;52.994;6.940;2023-01-01T09:52:12;8.60;;;2.55;;
66087;SDS011;52872;52.994;6.940;2023-01-01T09:54:44;7.57;;;1.77;;
66087;SDS011;52872;52.994;6.940;2023-01-01T09:57:22;6.57;;;2.22;;
66087;SDS011;52872;52.994;6.940;2023-01-01T09:59:53;7.72;;;2.08;;
66087;SDS011;52872;52.994;6.940;2023-01-01T10:05:36;11.90;;;2.20;;
66087;SDS011;52872;52.994;6.940;2023-01-01T10:14:05;11.05;;;2.60;;
66087;SDS011;52872;52.994;6.940;2023-01-01T10:16:54;10.77;;;1.67;;
66087;SDS011;52872;52.994;6.940;2023-01-01T10:19:31;8.07;;;2.10;;
66087;SDS011;52872;52.994;6.940;2023-01-01T10:22:08;6.53;;;1.75;;
66087;SDS011;52872;52.994;6.940;2023-01-01T10:24:42;11.35;;;2.25;;
66087;SDS011;52872;52.994;6.940;2023-01-01T10:29:55;7.60;;;1.95;;
66087;SDS011;52872;52.994;6.940;2023-01-01T10:35:02;8.15;;;1.75;;
66087;SDS011;52872;52.994;6.940;2023-01-01T10:37:38;8.40;;;1.95;;
66087;SDS011;52872;52.994;6.940;2023-01-01T10:40:13;10.13;;;1.98;;
66087;SDS011;52872;52.994;6.940;2023-01-01T10:42:47;7.45;;;1.90;;
66087;SDS011;52872;52.994;6.940;2023-01-01T10:45:17;6.43;;;1.77;;
66087;SDS011;52872;52.994;6.940;2023-01-01T10:53:18;16.35;;;2.10;;
66087;SDS011;52872;52.994;6.940;2023-01-01T10:58:37;11.75;;;2.17;;
66087;SDS011;52872;52.994;6.940;2023-01-01T11:06:51;4.43;;;1.85;;
66087;SDS011;52872;52.994;6.940;2023-01-01T11:09:19;12.38;;;2.25;;
66087;SDS011;52872;52.994;6.940;2023-01-01T11:11:56;9.80;;;1.90;;
66087;SDS011;52872;52.994;6.940;2023-01-01T11:14:42;9.55;;;1.73;;
66087;SDS011;52872;52.994;6.940;2023-01-01T11:17:25;8.93;;;1.90;;
66087;SDS011;52872;52.994;6.940;2023-01-01T11:19:53;9.30;;;1.92;;
66087;SDS011;52872;52.994;6.940;2023-01-01T11:25:02;10.13;;;1.75;;
66087;SDS011;52872;52.994;6.940;2023-01-01T11:27:36;10.20;;;2.10;;
66087;SDS011;52872;52.994;6.940;2023-01-01T11:30:22;9.40;;;1.65;;
66087;SDS011;52872;52.994;6.940;2023-01-01T11:33:00;6.13;;;1.48;;
66087;SDS011;52872;52.994;6.940;2023-01-01T11:35:30;8.48;;;2.13;;
66087;SDS011;52872;52.994;6.940;2023-01-01T11:37:58;8.25;;;1.75;;
66087;SDS011;52872;52.994;6.940;2023-01-01T11:43:02;11.43;;;2.03;;
66087;SDS011;52872;52.994;6.940;2023-01-01T11:45:33;12.45;;;2.45;;
66087;SDS011;52872;52.994;6.940;2023-01-01T11:48:16;9.43;;;2.28;;
66087;SDS011;52872;52.994;6.940;2023-01-01T11:50:54;8.23;;;1.85;;
66087;SDS011;52872;52.994;6.940;2023-01-01T11:53:42;10.35;;;2.08;;
66087;SDS011;52872;52.994;6.940;2023-01-01T11:56:16;8.38;;;2.00;;
66087;SDS011;52872;52.994;6.940;2023-01-01T12:01:33;12.68;;;2.30;;
66087;SDS011;52872;52.994;6.940;2023-01-01T12:07:09;7.90;;;2.10;;
66087;SDS011;52872;52.994;6.940;2023-01-01T12:17:50;10.65;;;2.30;;
66087;SDS011;52872;52.994;6.940;2023-01-01T12:20:55;14.23;;;2.72;;
66087;SDS011;52872;52.994;6.940;2023-01-01T12:23:30;8.50;;;1.83;;
66087;SDS011;52872;52.994;6.940;2023-01-01T12:26:00;11.50;;;2.40;;
66087;SDS011;52872;52.994;6.940;2023-01-01T12:31:11;12.50;;;2.38;;
66087;SDS011;52872;52.994;6.940;2023-01-01T12:56:03;11.52;;;2.40;;
66087;SDS011;52872;52.994;6.940;2023-01-01T12:58:42;12.57;;;3.00;;
66087;SDS011;52872;52.994;6.940;2023-01-01T13:01:32;8.77;;;2.35;;
66087;SDS011;52872;52.994;6.940;2023-01-01T13:04:02;9.15;;;1.95;;
66087;SDS011;52872;52.994;6.940;2023-01-01T13:06:49;11.10;;;2.30;;
66087;SDS011;52872;52.994;6.940;2023-01-01T13:09:18;8.48;;;2.35;;
66087;SDS011;52872;52.994;6.940;2023-01-01T13:11:49;9.82;;;2.67;;
66087;SDS011;52872;52.994;6.940;2023-01-01T13:14:25;12.77;;;2.80;;
66087;SDS011;52872;52.994;6.940;2023-01-01T13:16:53;8.65;;;1.85;;
66087;SDS011;52872;52.994;6.940;2023-01-01T13:21:59;12.27;;;2.45;;
66087;SDS011;52872;52.994;6.940;2023-01-01T13:36:36;8.18;;;2.63;;
66087;SDS011;52872;52.994;6.940;2023-01-01T14:06:01;10.95;;;2.60;;
66087;SDS011;52872;52.994;6.940;2023-01-01T14:08:36;13.32;;;3.05;;
66087;SDS011;52872;52.994;6.940;2023-01-01T14:11:19;9.63;;;2.08;;
66087;SDS011;52872;52.994;6.940;2023-01-01T14:13:49;7.68;;;2.22;;
66087;SDS011;52872;52.994;6.940;2023-01-01T14:16:16;10.27;;;2.70;;
66087;SDS011;52872;52.994;6.940;2023-01-01T14:18:47;11.38;;;2.90;;
66087;SDS011;52872;52.994;6.940;2023-01-01T14:21:18;5.97;;;2.25;;
66087;SDS011;52872;52.994;6.940;2023-01-01T14:23:47;10.85;;;2.95;;
66087;SDS011;52872;52.994;6.940;2023-01-01T14:26:18;13.30;;;3.65;;
66087;SDS011;52872;52.994;6.940;2023-01-01T14:28:47;10.55;;;2.70;;
66087;SDS011;52872;52.994;6.940;2023-01-01T14:31:15;8.63;;;2.50;;
66087;SDS011;52872;52.994;6.940;2023-01-01T14:36:26;10.23;;;2.53;;
66087;SDS011;52872;52.994;6.940;2023-01-01T14:38:57;9.93;;;3.03;;
66087;SDS011;52872;52.994;6.940;2023-01-01T14:44:08;11.52;;;2.83;;
66087;SDS011;52872;52.994;6.940;2023-01-01T14:46:42;10.80;;;2.90;;
66087;SDS011;52872;52.994;6.940;2023-01-01T14:49:19;9.10;;;2.60;;
66087;SDS011;52872;52.994;6.940;2023-01-01T14:52:00;8.65;;;3.13;;
66087;SDS011;52872;52.994;6.940;2023-01-01T14:54:33;8.10;;;2.92;;
66087;SDS011;52872;52.994;6.940;2023-01-01T14:57:07;13.85;;;4.47;;
66087;SDS011;52872;52.994;6.940;2023-01-01T14:59:47;10.57;;;3.03;;
66087;SDS011;52872;52.994;6.940;2023-01-01T15:02:21;10.27;;;3.47;;
66087;SDS011;52872;52.994;6.940;2023-01-01T15:04:50;10.73;;;3.20;;
66087;SDS011;52872;52.994;6.940;2023-01-01T15:07:21;13.27;;;4.15;;
66087;SDS011;52872;52.994;6.940;2023-01-01T15:09:51;9.10;;;2.92;;
66087;SDS011;52872;52.994;6.940;2023-01-01T15:12:19;9.63;;;3.20;;
66087;SDS011;52872;52.994;6.940;2023-01-01T15:14:49;10.13;;;2.78;;
66087;SDS011;52872;52.994;6.940;2023-01-01T15:17:25;12.90;;;3.28;;
66087;SDS011;52872;52.994;6.940;2023-01-01T15:20:00;7.47;;;2.70;;
66087;SDS011;52872;52.994;6.940;2023-01-01T15:22:34;11.02;;;2.80;;
66087;SDS011;52872;52.994;6.940;2023-01-01T15:25:04;8.85;;;3.00;;
66087;SDS011;52872;52.994;6.940;2023-01-01T15:27:37;7.25;;;3.08;;
66087;SDS011;52872;52.994;6.940;2023-01-01T15:30:04;9.10;;;3.10;;
66087;SDS011;52872;52.994;6.940;2023-01-01T15:32:38;11.50;;;3.00;;
66087;SDS011;52872;52.994;6.940;2023-01-01T15:35:17;10.88;;;3.50;;
66087;SDS011;52872;52.994;6.940;2023-01-01T15:37:54;9.73;;;2.88;;
66087;SDS011;52872;52.994;6.940;2023-01-01T15:40:34;15.35;;;3.58;;
66087;SDS011;52872;52.994;6.940;2023-01-01T15:45:29;10.00;;;3.65;;
66087;SDS011;52872;52.994;6.940;2023-01-01T15:53:19;12.15;;;4.03;;
66087;SDS011;52872;52.994;6.940;2023-01-01T15:58:22;13.90;;;3.45;;
66087;SDS011;52872;52.994;6.940;2023-01-01T16:00:59;11.63;;;3.38;;
66087;SDS011;52872;52.994;6.940;2023-01-01T16:03:29;14.18;;;4.07;;
66087;SDS011;52872;52.994;6.940;2023-01-01T16:05:57;17.08;;;3.55;;
66087;SDS011;52872;52.994;6.940;2023-01-01T16:08:25;11.75;;;3.20;;
66087;SDS011;52872;52.994;6.940;2023-01-01T16:10:52;13.48;;;3.08;;
66087;SDS011;52872;52.994;6.940;2023-01-01T16:13:19;8.88;;;3.08;;
66087;SDS011;52872;52.994;6.940;2023-01-01T16:15:58;10.85;;;3.20;;
66087;SDS011;52872;52.994;6.940;2023-01-01T16:20:58;12.05;;;3.22;;
66087;SDS011;52872;52.994;6.940;2023-01-01T16:23:26;10.30;;;2.83;;
66087;SDS011;52872;52.994;6.940;2023-01-01T16:25:53;11.77;;;3.08;;
66087;SDS011;52872;52.994;6.940;2023-01-01T16:28:20;10.38;;;3.10;;
66087;SDS011;52872;52.994;6.940;2023-01-01T16:30:49;16.88;;;3.78;;
66087;SDS011;52872;52.994;6.940;2023-01-01T16:33:17;14.35;;;3.75;;
66087;SDS011;52872;52.994;6.940;2023-01-01T16:35:45;10.05;;;3.15;;
66087;SDS011;52872;52.994;6.940;2023-01-01T16:38:12;12.02;;;2.95;;
66087;SDS011;52872;52.994;6.940;2023-01-01T16:40:40;16.75;;;3.53;;
66087;SDS011;52872;52.994;6.940;2023-01-01T16:43:14;18.02;;;4.45;;
66087;SDS011;52872;52.994;6.940;2023-01-01T16:45:42;12.45;;;3.10;;
66087;SDS011;52872;52.994;6.940;2023-01-01T16:48:10;12.50;;;3.47;;
66087;SDS011;52872;52.994;6.940;2023-01-01T16:50:37;11.75;;;3.67;;
66087;SDS011;52872;52.994;6.940;2023-01-01T16:53:04;14.02;;;4.10;;
66087;SDS011;52872;52.994;6.940;2023-01-01T16:55:31;12.60;;;3.78;;
66087;SDS011;52872;52.994;6.940;2023-01-01T16:57:58;11.32;;;3.28;;
66087;SDS011;52872;52.994;6.940;2023-01-01T17:00:45;13.30;;;3.83;;
66087;SDS011;52872;52.994;6.940;2023-01-01T17:03:12;12.55;;;3.33;;
66087;SDS011;52872;52.994;6.940;2023-01-01T17:05:40;14.45;;;4.15;;
66087;SDS011;52872;52.994;6.940;2023-01-01T17:08:10;12.07;;;3.67;;
66087;SDS011;52872;52.994;6.940;2023-01-01T17:10:37;12.88;;;3.60;;
66087;SDS011;52872;52.994;6.940;2023-01-01T17:13:04;12.77;;;4.40;;
66087;SDS011;52872;52.994;6.940;2023-01-01T17:15:31;21.27;;;8.80;;
66087;SDS011;52872;52.994;6.940;2023-01-01T17:17:58;24.42;;;15.95;;
66087;SDS011;52872;52.994;6.940;2023-01-01T17:20:25;13.55;;;5.18;;
66087;SDS011;52872;52.994;6.940;2023-01-01T17:22:52;12.18;;;6.53;;
66087;SDS011;52872;52.994;6.940;2023-01-01T17:25:20;13.95;;;6.22;;
66087;SDS011;52872;52.994;6.940;2023-01-01T17:27:47;11.73;;;4.68;;
66087;SDS011;52872;52.994;6.940;2023-01-01T17:30:18;11.57;;;3.90;;
66087;SDS011;52872;52.994;6.940;2023-01-01T17:32:46;12.50;;;4.75;;
66087;SDS011;52872;52.994;6.940;2023-01-01T17:35:14;16.10;;;4.32;;
66087;SDS011;52872;52.994;6.940;2023-01-01T17:37:42;17.85;;;5.05;;
66087;SDS011;52872;52.994;6.940;2023-01-01T17:40:09;13.18;;;3.50;;
66087;SDS011;52872;52.994;6.940;2023-01-01T17:42:37;13.68;;;4.45;;
66087;SDS011;52872;52.994;6.940;2023-01-01T17:45:04;9.88;;;4.40;;
66087;SDS011;52872;52.994;6.940;2023-01-01T17:47:31;9.50;;;4.53;;
66087;SDS011;52872;52.994;6.940;2023-01-01T17:49:59;13.68;;;4.90;;
66087;SDS011;52872;52.994;6.940;2023-01-01T17:52:29;11.77;;;4.68;;
66087;SDS011;52872;52.994;6.940;2023-01-01T17:54:56;13.00;;;4.50;;